Time;durP1;ratioP1;P1;durP2;ratioP2;P2;SDS_P1;SDS_P2;PMS_P1;PMS_P2;Temp;Humidity;BMP_temperature;BMP_pressure;BME280_temperature;BME280_humidity;BME280_pressure;Samples;Min_cycle;Max_cycle;Signal;HPM_P1;HPM_P2
2022/06/14 07:58:54;;;;;;;7.43;3.35;;;;;;;16.12;49.89;102263.69;5365679;27;20893;-75
2022/06/14 08:01:37;;;;;;;9.45;6.15;;;;;;;15.95;50.66;102261.31;5338205;28;20492;-76
2022/06/14 08:04:18;;;;;;;9.38;5.43;;;;;;;15.98;51.33;102257.94;5321845;28;20102;-69
2022/06/14 08:07:12;;;;;;;7.70;3.47;;;;;;;16.13;52.09;102253.31;5322076;28;20028;-70
2022/06/14 08:10:00;;;;;;;6.28;3.63;;;;;;;16.19;51.81;102252.16;5322268;28;20378;-70
2022/06/14 08:12:43;;;;;;;5.50;3.40;;;;;;;16.25;51.22;102249.00;5337587;28;20032;-72
2022/06/14 08:15:16;;;;;;;6.63;3.38;;;;;;;16.44;51.03;102243.53;5343249;28;20038;-70
2022/06/14 08:18:05;;;;;;;11.57;3.47;;;;;;;16.41;50.95;102241.31;5323681;28;20028;-70
2022/06/14 08:20:44;;;;;;;8.23;3.40;;;;;;;16.41;50.81;102243.25;5322180;28;20031;-69
2022/06/14 08:23:25;;;;;;;7.63;2.95;;;;;;;16.56;49.83;102245.06;5328879;28;20022;-69
2022/06/14 08:26:04;;;;;;;6.45;2.88;;;;;;;16.60;50.89;102243.38;5343312;28;20485;-70
2022/06/14 08:28:47;;;;;;;12.18;3.80;;;;;;;16.74;50.24;102233.09;5335697;28;20024;-68
2022/06/14 08:31:26;;;;;;;7.85;3.13;;;;;;;16.82;50.11;102229.69;5323752;28;20024;-68
2022/06/14 08:34:07;;;;;;;8.10;3.72;;;;;;;16.57;50.00;102242.00;5342878;28;20470;-69
2022/06/14 08:36:50;;;;;;;5.95;3.65;;;;;;;16.56;49.83;102231.06;5342678;28;20023;-69
2022/06/14 08:39:32;;;;;;;9.98;3.38;;;;;;;16.59;50.78;102224.88;5342908;28;20020;-69
2022/06/14 08:42:16;;;;;;;8.80;3.20;;;;;;;16.81;51.06;102233.63;5342345;28;20134;-69
2022/06/14 08:45:06;;;;;;;5.28;3.30;;;;;;;16.67;50.53;102232.66;5340950;28;20087;-69
2022/06/14 08:47:43;;;;;;;7.15;3.25;;;;;;;16.63;50.72;102229.59;5321781;28;20032;-69
2022/06/14 08:50:21;;;;;;;8.00;3.92;;;;;;;16.71;50.17;102219.69;5337791;28;20019;-69
2022/06/14 08:53:12;;;;;;;13.25;10.38;;;;;;;16.86;50.00;102232.72;5341935;28;20031;-69
2022/06/14 08:56:06;;;;;;;9.05;5.13;;;;;;;17.07;50.09;102224.88;5324758;28;20035;-72
2022/06/14 08:59:16;;;;;;;59.70;51.40;;;;;;;17.12;49.69;102222.84;5320351;28;20044;-72
2022/06/14 09:02:08;;;;;;;9.60;3.83;;;;;;;17.12;49.63;102231.25;5263344;28;20029;-69
2022/06/14 09:04:45;;;;;;;32.05;23.33;;;;;;;17.08;49.23;102233.00;5330240;28;20036;-70
2022/06/14 09:07:48;;;;;;;35.97;28.65;;;;;;;17.20;49.18;102234.53;5320325;28;20031;-70
2022/06/14 09:10:28;;;;;;;11.80;6.07;;;;;;;17.32;49.09;102226.53;5306181;28;20023;-73
2022/06/14 09:13:18;;;;;;;8.88;3.45;;;;;;;17.51;48.87;102223.69;5306225;28;20093;-70
2022/06/14 09:15:55;;;;;;;6.18;2.67;;;;;;;17.40;48.95;102225.84;5306663;28;20032;-68
2022/06/14 09:18:36;;;;;;;6.55;3.40;;;;;;;17.47;48.29;102225.47;5306984;28;20546;-69
2022/06/14 09:21:10;;;;;;;7.15;3.00;;;;;;;17.69;48.56;102228.50;5325788;28;20100;-70
2022/06/14 09:24:19;;;;;;;6.63;2.50;;;;;;;17.70;48.53;102227.34;5328126;28;20110;-70
2022/06/14 09:27:04;;;;;;;4.60;2.60;;;;;;;17.79;47.67;102221.88;5325229;28;20436;-72
2022/06/14 09:29:57;;;;;;;6.63;3.17;;;;;;;17.73;47.59;102225.91;5327855;28;20070;-70
2022/06/14 09:33:09;;;;;;;5.03;2.97;;;;;;;17.76;46.34;102222.47;5319127;28;20036;-70
2022/06/14 09:36:04;;;;;;;7.05;2.97;;;;;;;17.81;46.98;102217.66;5306318;28;20077;-70
2022/06/14 09:38:54;;;;;;;5.25;2.97;;;;;;;18.00;46.57;102212.00;5318867;28;20115;-71
2022/06/14 09:41:52;;;;;;;7.00;3.35;;;;;;;18.01;46.55;102210.03;5325290;28;20034;-70
2022/06/14 09:44:53;;;;;;;7.55;3.85;;;;;;;18.00;47.37;102203.59;5306356;28;20115;-70
2022/06/14 09:47:33;;;;;;;6.00;2.85;;;;;;;18.09;46.77;102194.47;5274003;28;20040;-73
2022/06/14 09:50:42;;;;;;;9.80;2.90;;;;;;;18.20;47.47;102196.78;5336444;27;20525;-70
2022/06/14 09:53:32;;;;;;;8.13;3.17;;;;;;;18.22;48.25;102193.66;5339690;27;20048;-71
2022/06/14 09:56:16;;;;;;;6.22;2.80;;;;;;;18.29;47.92;102190.44;5306461;28;20495;-75
2022/06/14 09:59:13;;;;;;;6.30;2.78;;;;;;;18.30;46.59;102192.09;5310011;28;20040;-75
2022/06/14 10:02:21;;;;;;;7.93;3.13;;;;;;;18.20;47.28;102181.88;5305578;28;20421;-74
2022/06/14 10:05:10;;;;;;;6.78;2.88;;;;;;;18.37;47.37;102184.94;5322724;28;20031;-71
2022/06/14 10:08:02;;;;;;;8.25;2.58;;;;;;;18.63;47.09;102182.44;5323548;28;20470;-72
2022/06/14 10:10:55;;;;;;;5.22;2.40;;;;;;;18.62;46.66;102186.41;5312846;28;20024;-75
2022/06/14 10:13:29;;;;;;;6.00;3.40;;;;;;;18.72;46.42;102184.56;5314575;28;20090;-71
2022/06/14 10:16:09;;;;;;;6.05;3.85;;;;;;;18.60;44.94;102176.63;5306168;28;20083;-72
2022/06/14 10:18:46;;;;;;;4.82;2.25;;;;;;;18.58;44.87;102185.34;5305019;28;20043;-72
2022/06/14 10:21:28;;;;;;;6.75;2.90;;;;;;;18.80;45.79;102175.41;5309218;28;20026;-72
2022/06/14 10:24:26;;;;;;;4.95;2.80;;;;;;;18.85;47.60;102178.94;5325811;28;20027;-72
2022/06/14 10:30:18;;;;;;;7.30;3.03;;;;;;;18.55;46.60;102160.72;5304544;28;20407;-73
2022/06/14 10:33:19;;;;;;;5.22;3.00;;;;;;;18.86;45.68;102160.09;5305943;28;20024;-73
2022/06/14 10:36:28;;;;;;;7.25;2.97;;;;;;;18.89;45.23;102146.25;5326576;28;20378;-73
2022/06/14 10:39:15;;;;;;;5.85;2.53;;;;;;;19.02;45.55;102150.19;5326013;28;20103;-73
2022/06/14 10:42:08;;;;;;;5.93;2.97;;;;;;;18.97;45.51;102150.31;5325742;28;20027;-73
2022/06/14 10:45:14;;;;;;;6.22;2.90;;;;;;;18.99;45.96;102144.34;5321903;28;20023;-73
2022/06/14 10:48:07;;;;;;;8.25;6.78;;;;;;;19.16;46.16;102149.31;5318374;28;20089;-75
2022/06/14 10:51:05;;;;;;;7.93;3.40;;;;;;;19.20;44.78;102136.28;5325653;28;20081;-75
2022/06/14 10:53:55;;;;;;;7.20;3.00;;;;;;;19.17;46.12;102134.09;5325820;28;20028;-73
2022/06/14 10:56:49;;;;;;;5.80;3.58;;;;;;;19.26;44.75;102138.66;5325923;28;20020;-73
2022/06/14 10:59:48;;;;;;;7.70;3.42;;;;;;;19.39;45.28;102125.69;5324873;28;20055;-74
2022/06/14 11:02:46;;;;;;;5.75;3.78;;;;;;;19.25;44.72;102130.53;5321201;28;20027;-72
2022/06/14 11:05:48;;;;;;;7.35;2.95;;;;;;;19.08;44.74;102125.59;5303059;28;20111;-69
2022/06/14 11:08:29;;;;;;;5.70;2.75;;;;;;;19.31;44.98;102126.47;5325009;28;20061;-70
2022/06/14 11:11:19;;;;;;;18.75;4.07;;;;;;;19.27;44.87;102129.06;5319603;28;20034;-73
2022/06/14 11:13:54;;;;;;;7.30;3.95;;;;;;;19.22;44.29;102120.75;5303547;28;20042;-72
2022/06/14 11:16:46;;;;;;;28.88;23.08;;;;;;;19.36;44.65;102117.91;5304445;28;20024;-71
2022/06/14 11:19:30;;;;;;;7.68;3.80;;;;;;;19.37;44.82;102119.56;5316703;28;20077;-72
2022/06/14 11:22:15;;;;;;;9.65;3.88;;;;;;;19.26;45.00;102116.16;5320206;28;20447;-69
2022/06/14 11:24:55;;;;;;;10.95;9.30;;;;;;;19.35;45.10;102121.84;5325277;28;20088;-70
2022/06/14 11:28:04;;;;;;;6.43;4.95;;;;;;;19.39;44.90;102108.81;5310385;28;20031;-72
2022/06/14 11:30:54;;;;;;;6.20;3.90;;;;;;;19.57;45.38;102097.69;5287307;28;20046;-71
2022/06/14 11:34:11;;;;;;;8.25;4.65;;;;;;;19.79;45.01;102106.16;5320397;28;20036;-69
2022/06/14 11:37:26;;;;;;;77.93;17.10;;;;;;;19.95;43.93;102100.94;5309476;28;20358;-69
2022/06/14 11:40:07;;;;;;;4.95;2.70;;;;;;;19.92;42.66;102096.78;5306167;28;20028;-71
2022/06/14 11:42:41;;;;;;;14.63;4.70;;;;;;;19.98;43.25;102095.47;5310966;28;20023;-71
2022/06/14 11:45:44;;;;;;;56.30;15.05;;;;;;;19.98;41.68;102086.22;5325537;28;20028;-70
2022/06/14 11:48:40;;;;;;;7.43;3.55;;;;;;;19.86;42.77;102083.16;5324125;28;20046;-70
2022/06/14 11:51:24;;;;;;;5.55;3.13;;;;;;;19.88;41.57;102076.03;5325314;28;20481;-70
2022/06/14 11:54:14;;;;;;;7.90;3.35;;;;;;;19.88;41.97;102078.03;5305755;28;20021;-71
2022/06/14 11:56:51;;;;;;;7.70;3.20;;;;;;;19.85;42.05;102073.06;5303627;28;20068;-71
2022/06/14 11:59:48;;;;;;;12.15;3.92;;;;;;;20.01;41.57;102079.09;5303776;28;20028;-71
2022/06/14 12:02:44;;;;;;;5.75;2.55;;;;;;;20.19;42.19;102076.00;5302878;28;20032;-71
2022/06/14 12:05:27;;;;;;;7.68;3.20;;;;;;;20.49;41.84;102078.28;5303897;28;20443;-71
2022/06/14 12:08:27;;;;;;;7.43;3.63;;;;;;;20.45;41.38;102071.63;5302631;28;20046;-71
2022/06/14 12:11:09;;;;;;;7.03;4.22;;;;;;;20.34;42.18;102076.75;5304526;28;20376;-71
2022/06/14 12:13:40;;;;;;;6.20;3.08;;;;;;;20.51;41.71;102073.16;5303591;28;20032;-71
2022/06/14 12:17:08;;;;;;;4.88;3.05;;;;;;;20.76;42.42;102074.38;5303069;28;20032;-73
2022/06/14 12:19:46;;;;;;;6.53;4.50;;;;;;;20.70;40.59;102073.69;5197496;28;20129;-71
2022/06/14 12:22:33;;;;;;;7.25;5.43;;;;;;;20.84;40.87;102067.94;5196779;28;20487;-71
2022/06/14 12:28:12;;;;;;;6.72;3.90;;;;;;;20.77;40.59;102067.59;5317427;28;20043;-71
2022/06/14 12:30:45;;;;;;;32.72;29.42;;;;;;;20.71;40.18;102064.09;5323923;28;20051;-72
2022/06/14 12:33:40;;;;;;;7.70;3.42;;;;;;;20.95;40.18;102063.63;5323992;28;20119;-70
2022/06/14 12:36:45;;;;;;;8.60;3.50;;;;;;;20.89;39.79;102052.81;5324108;28;20046;-72
2022/06/14 12:39:23;;;;;;;7.93;3.85;;;;;;;21.13;39.79;102049.53;5324866;28;20027;-71
2022/06/14 12:42:26;;;;;;;4.35;3.10;;;;;;;21.19;40.13;102056.63;5324298;28;20502;-71
2022/06/14 12:45:12;;;;;;;5.40;3.05;;;;;;;21.32;38.87;102054.81;5308943;28;20535;-71
2022/06/14 12:47:54;;;;;;;8.85;3.15;;;;;;;21.27;38.61;102047.38;5328426;28;20028;-71
2022/06/14 12:50:35;;;;;;;4.53;2.75;;;;;;;21.31;37.78;102047.50;5328033;28;20498;-70
2022/06/14 12:53:17;;;;;;;7.85;3.35;;;;;;;21.59;37.63;102043.16;5327907;28;20030;-71
2022/06/14 12:55:59;;;;;;;5.78;2.70;;;;;;;21.71;38.61;102040.47;5325748;28;20035;-72
2022/06/14 12:58:46;;;;;;;7.85;3.58;;;;;;;21.78;38.71;102045.63;5327117;28;20054;-72
2022/06/14 13:01:30;;;;;;;8.38;3.60;;;;;;;21.77;38.25;102034.66;5314884;28;20111;-72
2022/06/14 13:04:08;;;;;;;10.13;6.05;;;;;;;21.82;38.39;102034.47;5306764;28;20477;-72
2022/06/14 13:06:55;;;;;;;5.72;3.63;;;;;;;21.85;38.86;102022.50;5306866;28;20039;-72
2022/06/14 13:09:51;;;;;;;7.97;3.50;;;;;;;22.15;38.85;102024.16;5306413;28;20024;-68
2022/06/14 13:12:34;;;;;;;8.32;4.30;;;;;;;22.08;38.31;102021.03;5305481;28;20044;-71
2022/06/14 13:15:34;;;;;;;5.63;3.67;;;;;;;22.41;38.73;102016.75;5306480;28;20020;-70
2022/06/14 13:18:22;;;;;;;6.93;3.25;;;;;;;22.18;37.11;102016.19;5307748;28;20044;-71
2022/06/14 13:20:58;;;;;;;5.90;3.13;;;;;;;22.15;38.21;102021.34;5327445;28;20044;-71
2022/06/14 13:23:38;;;;;;;5.03;3.47;;;;;;;22.39;38.07;102008.59;5327556;28;20108;-70
2022/06/14 13:26:43;;;;;;;6.00;2.85;;;;;;;22.50;37.27;102009.88;5313888;27;20061;-73
2022/06/14 13:29:22;;;;;;;7.90;3.75;;;;;;;22.60;37.13;102004.97;5306436;28;20363;-71
2022/06/14 13:31:53;;;;;;;8.32;4.57;;;;;;;22.62;36.60;101996.97;5306397;28;20115;-71
2022/06/14 13:34:29;;;;;;;9.18;3.90;;;;;;;22.42;37.01;102007.09;5319906;28;20107;-70
2022/06/14 13:37:11;;;;;;;6.13;4.18;;;;;;;22.41;36.71;102003.44;5306406;28;20028;-72
2022/06/14 13:39:49;;;;;;;8.50;3.80;;;;;;;22.48;36.81;102005.75;5305418;28;20374;-72
2022/06/14 13:42:36;;;;;;;5.78;3.30;;;;;;;22.58;37.26;101994.03;5305945;28;20378;-71
2022/06/14 13:45:22;;;;;;;10.00;3.67;;;;;;;22.78;36.19;101995.19;5305777;28;20028;-70
2022/06/14 13:48:20;;;;;;;5.80;3.67;;;;;;;22.78;37.22;101986.72;5304837;28;20379;-70
2022/06/14 13:50:57;;;;;;;11.52;4.78;;;;;;;23.01;36.42;101987.22;5306811;28;20035;-70
2022/06/14 13:53:35;;;;;;;7.35;3.33;;;;;;;22.86;36.64;101988.63;5326317;28;20048;-70
2022/06/14 13:56:23;;;;;;;5.05;3.53;;;;;;;23.14;35.98;101993.75;5325395;28;20404;-71
2022/06/14 13:59:06;;;;;;;5.10;3.55;;;;;;;23.21;36.43;101988.31;5326450;28;20039;-71
2022/06/14 14:01:49;;;;;;;6.63;3.53;;;;;;;23.32;35.72;101983.88;5326660;28;20039;-72
2022/06/14 14:04:40;;;;;;;5.78;3.10;;;;;;;23.54;35.71;101982.63;5327137;28;20481;-72
2022/06/14 14:07:19;;;;;;;8.68;4.43;;;;;;;23.42;36.01;101979.78;5327142;28;20097;-72
2022/06/14 14:10:17;;;;;;;6.28;4.15;;;;;;;23.43;35.42;101973.75;5308903;28;20067;-71
2022/06/14 14:13:02;;;;;;;7.43;4.20;;;;;;;23.26;35.67;101970.28;5305793;28;20094;-72
2022/06/14 14:15:45;;;;;;;7.05;3.40;;;;;;;23.28;35.89;101976.44;5304836;28;20024;-72
2022/06/14 14:18:28;;;;;;;7.45;4.68;;;;;;;23.39;35.56;101971.97;5305620;28;20028;-71
2022/06/14 14:21:15;;;;;;;5.70;3.47;;;;;;;23.41;35.05;101972.47;5305672;28;20024;-73
2022/06/14 14:24:13;;;;;;;6.97;3.40;;;;;;;23.38;35.36;101959.84;5324690;28;20028;-73
2022/06/14 14:26:57;;;;;;;8.70;4.07;;;;;;;23.26;35.33;101951.31;5325450;28;20035;-71
2022/06/14 14:29:35;;;;;;;6.13;3.25;;;;;;;23.48;35.42;101963.41;5325844;28;20024;-72
2022/06/14 14:32:28;;;;;;;8.88;3.40;;;;;;;23.79;36.01;101962.88;5319672;28;20015;-72
2022/06/14 14:35:21;;;;;;;8.98;4.30;;;;;;;23.73;34.53;101950.97;5316133;28;20066;-72
2022/06/14 14:38:01;;;;;;;6.82;3.42;;;;;;;23.69;34.54;101935.81;5304552;28;20061;-73
2022/06/14 14:40:37;;;;;;;5.57;3.45;;;;;;;23.61;34.10;101943.22;5312116;28;20487;-74
2022/06/14 14:43:08;;;;;;;8.32;3.60;;;;;;;23.53;33.64;101938.50;5313385;28;20489;-74
2022/06/14 14:45:48;;;;;;;5.28;2.45;;;;;;;23.65;33.31;101932.06;5304773;28;20104;-71
2022/06/14 14:48:41;;;;;;;5.85;3.65;;;;;;;23.54;33.73;101937.31;5304364;28;20031;-74
2022/06/14 14:51:23;;;;;;;5.10;2.83;;;;;;;23.71;33.38;101927.78;5306679;28;20012;-75
2022/06/14 14:54:16;;;;;;;5.88;5.13;;;;;;;23.70;33.73;101926.16;5320213;28;20386;-74
2022/06/14 14:57:12;;;;;;;5.72;3.40;;;;;;;23.96;34.50;101930.66;5321067;28;20048;-74
2022/06/14 14:59:51;;;;;;;7.22;4.78;;;;;;;23.94;34.63;101918.84;5323344;28;20107;-76
2022/06/14 15:05:59;;;;;;;6.90;3.00;;;;;;;23.86;34.94;101912.94;5314753;28;20036;-75
2022/06/14 15:08:43;;;;;;;6.22;3.45;;;;;;;23.73;34.50;101910.50;5326110;28;20046;-75
2022/06/14 15:11:15;;;;;;;9.15;2.88;;;;;;;23.83;34.70;101907.19;5307689;28;20028;-75
2022/06/14 15:13:52;;;;;;;6.80;3.63;;;;;;;23.81;34.31;101898.22;5321536;28;20150;-72
2022/06/14 15:16:35;;;;;;;5.97;4.78;;;;;;;23.78;34.58;101904.59;5320271;28;20023;-74
2022/06/14 15:22:23;;;;;;;9.38;3.10;;;;;;;23.74;33.59;101890.28;5325613;28;20031;-73
2022/06/14 15:25:14;;;;;;;7.97;2.60;;;;;;;23.58;33.59;101890.16;5324956;28;20110;-78
2022/06/14 15:28:06;;;;;;;6.28;2.95;;;;;;;23.71;34.44;101884.50;5314608;28;20031;-72
2022/06/14 15:30:49;;;;;;;11.43;2.80;;;;;;;23.74;34.17;101878.97;5325276;28;20024;-71
2022/06/14 15:33:39;;;;;;;5.97;2.53;;;;;;;23.75;34.41;101872.13;5319488;28;20539;-70
2022/06/14 15:36:25;;;;;;;5.55;2.60;;;;;;;23.76;34.46;101868.13;5322956;28;20057;-74
2022/06/14 15:39:26;;;;;;;28.85;25.73;;;;;;;23.86;34.07;101873.28;5314196;28;20063;-75
2022/06/14 15:42:27;;;;;;;7.25;4.28;;;;;;;23.78;33.88;101871.41;5306850;28;20040;-75
2022/06/14 15:45:02;;;;;;;5.57;2.17;;;;;;;23.59;33.48;101860.66;5303930;28;20023;-74
2022/06/14 15:47:37;;;;;;;8.20;3.35;;;;;;;23.77;34.18;101860.44;5302910;28;20028;-74
2022/06/14 15:50:30;;;;;;;6.53;3.13;;;;;;;23.82;34.37;101865.84;5307499;28;20024;-73
2022/06/14 15:53:14;;;;;;;5.63;1.90;;;;;;;23.29;35.84;101862.91;5324562;28;20489;-75
2022/06/14 15:55:52;;;;;;;7.80;2.35;;;;;;;23.78;33.78;101853.59;5323270;28;20107;-73
2022/06/14 15:58:35;;;;;;;5.82;2.10;;;;;;;23.83;34.18;101861.88;5324136;28;20410;-73
2022/06/14 16:01:24;;;;;;;4.78;2.40;;;;;;;23.87;33.41;101863.59;5323147;28;20016;-73
2022/06/14 16:04:12;;;;;;;5.35;3.33;;;;;;;23.68;33.39;101852.03;5324734;28;20069;-71
2022/06/14 16:07:00;;;;;;;6.28;2.20;;;;;;;23.90;33.29;101850.72;5324551;28;20031;-72
2022/06/14 16:09:34;;;;;;;7.38;3.33;;;;;;;23.88;34.37;101838.97;5303612;28;20016;-72
2022/06/14 16:12:34;;;;;;;9.25;2.80;;;;;;;24.14;34.07;101841.38;5317480;28;20466;-71
2022/06/14 16:15:37;;;;;;;8.75;2.80;;;;;;;24.11;33.05;101835.56;5324473;28;20434;-71
2022/06/14 16:18:26;;;;;;;5.45;2.30;;;;;;;23.93;33.36;101832.19;5324752;28;20035;-71
2022/06/14 16:21:15;;;;;;;3.28;2.25;;;;;;;23.75;33.98;101838.16;5330060;28;20531;-71
2022/06/14 16:23:49;;;;;;;6.93;2.53;;;;;;;23.85;34.85;101829.16;5328570;28;20027;-72
2022/06/14 16:26:26;;;;;;;7.97;2.42;;;;;;;23.72;34.15;101821.84;5308045;28;20109;-72
2022/06/14 16:29:22;;;;;;;6.65;2.83;;;;;;;23.93;34.40;101821.72;5310539;28;20157;-72
2022/06/14 16:32:05;;;;;;;;;;;;;;;24.14;33.55;101829.22;5308048;28;20093;-71
2022/06/14 16:34:47;;;;;;;3.22;1.95;;;;;;;23.91;34.35;101815.56;5307424;28;19915;-71
2022/06/14 16:37:47;;;;;;;7.70;3.35;;;;;;;23.97;34.27;101805.63;5306454;28;20032;-71
2022/06/14 16:40:40;;;;;;;5.13;2.20;;;;;;;24.05;34.67;101804.66;5308145;28;20054;-70
2022/06/14 16:43:17;;;;;;;7.32;2.60;;;;;;;24.10;34.78;101814.91;5327385;28;20538;-70
2022/06/14 16:46:26;;;;;;;6.15;2.50;;;;;;;23.99;35.09;101808.94;5329354;28;20028;-70
2022/06/14 16:49:12;;;;;;;7.78;4.30;;;;;;;24.43;34.77;101808.19;5328410;28;20038;-70
2022/06/14 16:51:54;;;;;;;5.97;2.35;;;;;;;24.62;33.74;101802.69;5319467;28;20443;-70
2022/06/14 16:54:52;;;;;;;5.40;2.17;;;;;;;24.50;33.57;101799.91;5327107;28;20490;-70
2022/06/14 16:57:39;;;;;;;6.97;2.42;;;;;;;24.53;33.97;101804.84;5317061;28;20502;-71
2022/06/14 17:00:39;;;;;;;5.50;2.55;;;;;;;24.87;34.00;101794.84;5307517;28;20074;-71
2022/06/14 17:03:53;;;;;;;5.85;2.42;;;;;;;24.93;34.13;101795.41;5307084;28;20103;-71
2022/06/14 17:06:35;;;;;;;5.57;2.90;;;;;;;24.81;33.26;101795.50;5234910;28;20036;-72
2022/06/14 17:09:20;;;;;;;6.13;2.63;;;;;;;24.91;33.65;101797.78;5313234;28;20019;-71
2022/06/14 17:12:04;;;;;;;6.63;2.27;;;;;;;24.83;33.48;101796.78;5320429;28;20024;-72
2022/06/14 17:14:45;;;;;;;4.65;2.17;;;;;;;24.55;33.20;101799.66;5307836;28;20366;-71
2022/06/14 17:17:23;;;;;;;8.85;4.63;;;;;;;24.54;33.71;101795.16;5313755;28;20090;-71
2022/06/14 17:20:06;;;;;;;9.82;6.78;;;;;;;24.70;33.80;101803.72;5327943;28;20122;-70
2022/06/14 17:22:43;;;;;;;12.10;6.85;;;;;;;24.76;33.93;101795.75;5320552;28;20028;-70
